createdAt,value
2023-04-26T00:01:34.893Z,47.26
2023-04-26T00:04:02.536Z,47.04
2023-04-26T00:06:29.997Z,47.42
2023-04-26T00:08:57.282Z,47.80
2023-04-26T00:11:24.501Z,47.78
2023-04-26T00:13:52.254Z,48.01
2023-04-26T00:16:19.581Z,47.70
2023-04-26T00:18:46.878Z,47.83
2023-04-26T00:21:14.419Z,47.56
2023-04-26T00:23:41.772Z,47.54
2023-04-26T00:26:09.039Z,47.95
2023-04-26T00:28:36.392Z,47.71
2023-04-26T00:31:03.622Z,47.79
2023-04-26T00:33:30.916Z,48.08
2023-04-26T00:35:58.309Z,47.75
2023-04-26T00:38:25.554Z,47.90
2023-04-26T00:40:52.751Z,47.77
2023-04-26T00:43:20.039Z,48.15
2023-04-26T00:45:47.515Z,48.44
2023-04-26T00:48:16.400Z,48.29
2023-04-26T00:50:44.297Z,48.16
2023-04-26T00:53:12.916Z,48.09
2023-04-26T00:55:41.738Z,48.09
2023-04-26T00:58:09.568Z,48.15
2023-04-26T01:00:37.087Z,47.99
2023-04-26T01:03:04.661Z,48.05
2023-04-26T01:05:32.342Z,47.76
2023-04-26T01:08:00.450Z,48.25
2023-04-26T01:10:28.927Z,48.17
2023-04-26T01:12:57.289Z,47.86
2023-04-26T01:15:26.494Z,48.01
2023-04-26T01:17:54.044Z,48.18
2023-04-26T01:20:21.268Z,47.91
2023-04-26T01:22:48.566Z,48.21
2023-04-26T01:25:16.889Z,48.18
2023-04-26T01:27:44.300Z,48.39
2023-04-26T01:30:12.438Z,48.30
2023-04-26T01:32:39.757Z,48.39
2023-04-26T01:35:07.543Z,48.57
2023-04-26T01:37:34.833Z,48.52
2023-04-26T01:40:02.067Z,48.42
2023-04-26T01:42:29.339Z,48.76
2023-04-26T01:44:56.721Z,48.53
2023-04-26T01:47:24.359Z,48.50
2023-04-26T01:49:51.713Z,49.13
2023-04-26T01:52:18.954Z,49.34
2023-04-26T01:54:46.191Z,48.92
2023-04-26T01:57:13.426Z,48.68
2023-04-26T01:59:40.931Z,49.04
2023-04-26T02:02:08.374Z,48.89
2023-04-26T02:04:36.349Z,48.99
2023-04-26T02:07:03.606Z,49.00
2023-04-26T02:09:30.858Z,49.24
2023-04-26T02:11:58.127Z,49.24
2023-04-26T02:14:25.334Z,49.83
2023-04-26T02:16:52.600Z,49.56
2023-04-26T02:19:19.970Z,49.10
2023-04-26T02:21:58.503Z,49.25
2023-04-26T02:24:26.214Z,49.27
2023-04-26T02:26:53.512Z,49.47
2023-04-26T02:29:26.890Z,49.94
2023-04-26T02:31:58.623Z,49.86
2023-04-26T02:34:26.261Z,50.01
2023-04-26T02:36:53.520Z,49.84
2023-04-26T02:39:20.757Z,49.55
2023-04-26T02:41:47.983Z,49.45
2023-04-26T02:44:15.312Z,49.85
2023-04-26T02:46:42.773Z,49.69
2023-04-26T02:49:10.179Z,49.53
2023-04-26T02:51:37.779Z,49.57
2023-04-26T02:54:06.959Z,49.62
2023-04-26T02:56:34.508Z,49.75
2023-04-26T02:59:01.765Z,50.10
2023-04-26T03:01:29.075Z,50.11
2023-04-26T03:03:56.457Z,49.92
2023-04-26T03:06:23.883Z,49.87
2023-04-26T03:08:51.395Z,50.06
2023-04-26T03:11:18.785Z,50.03
2023-04-26T03:13:45.980Z,50.21
2023-04-26T03:16:13.447Z,50.48
2023-04-26T03:18:40.782Z,50.60
2023-04-26T03:21:08.091Z,50.27
2023-04-26T03:23:35.538Z,50.04
2023-04-26T03:26:02.997Z,49.98
2023-04-26T03:28:30.693Z,50.37
2023-04-26T03:30:59.675Z,50.44
2023-04-26T03:33:27.482Z,50.47
2023-04-26T03:35:54.719Z,50.54
2023-04-26T03:38:21.958Z,50.66
2023-04-26T03:40:49.478Z,50.73
2023-04-26T03:43:16.691Z,50.43
2023-04-26T03:45:48.065Z,50.15
2023-04-26T03:48:16.056Z,50.38
2023-04-26T03:50:43.716Z,50.49
2023-04-26T03:53:15.193Z,50.82
2023-04-26T03:55:42.571Z,50.77
2023-04-26T03:58:09.944Z,50.49
2023-04-26T04:00:41.381Z,50.42
2023-04-26T04:03:08.897Z,50.65
2023-04-26T04:05:36.729Z,50.56
2023-04-26T04:08:04.898Z,50.05
2023-04-26T04:10:32.228Z,50.08
2023-04-26T04:12:59.679Z,50.18
2023-04-26T04:15:27.143Z,50.51
2023-04-26T04:17:54.669Z,50.60
2023-04-26T04:20:22.036Z,50.38
2023-04-26T04:22:49.349Z,50.38
2023-04-26T04:25:16.587Z,50.87
2023-04-26T04:27:43.891Z,50.17
2023-04-26T04:30:11.766Z,50.36
2023-04-26T04:32:39.007Z,49.96
2023-04-26T04:35:07.543Z,50.24
2023-04-26T04:37:34.893Z,50.36
2023-04-26T04:40:02.410Z,50.08
2023-04-26T04:42:29.686Z,50.29
2023-04-26T04:44:57.204Z,50.15
2023-04-26T04:47:24.520Z,50.41
2023-04-26T04:49:51.796Z,50.42
2023-04-26T04:52:19.270Z,50.36
2023-04-26T04:54:46.726Z,50.29
2023-04-26T04:57:14.263Z,50.44
2023-04-26T04:59:41.909Z,50.33
2023-04-26T05:02:09.243Z,50.01
2023-04-26T05:04:37.774Z,49.96
2023-04-26T05:07:05.448Z,50.08
2023-04-26T05:09:32.675Z,49.78
2023-04-26T05:11:59.955Z,50.01
2023-04-26T05:14:27.639Z,50.52
2023-04-26T05:16:55.023Z,50.53
2023-04-26T05:19:22.773Z,50.31
2023-04-26T05:21:50.031Z,50.39
2023-04-26T05:24:17.286Z,50.59
2023-04-26T05:26:44.600Z,50.48
2023-04-26T05:29:11.988Z,50.64
2023-04-26T05:31:39.269Z,50.33
2023-04-26T05:34:06.526Z,50.16
2023-04-26T05:36:33.858Z,50.05
2023-04-26T05:39:01.131Z,50.17
2023-04-26T05:41:28.386Z,49.85
2023-04-26T05:43:55.705Z,49.58
2023-04-26T05:46:23.352Z,49.36
2023-04-26T05:48:50.706Z,49.69
2023-04-26T05:51:17.890Z,49.85
2023-04-26T05:53:45.124Z,49.78
2023-04-26T05:56:12.374Z,49.71
2023-04-26T05:58:39.727Z,49.89
2023-04-26T06:01:06.982Z,49.96
2023-04-26T06:03:34.629Z,49.96
2023-04-26T06:06:02.313Z,49.60
2023-04-26T06:08:29.743Z,49.70
2023-04-26T06:10:56.985Z,49.29
2023-04-26T06:13:24.365Z,48.92
2023-04-26T06:15:54.670Z,48.81
2023-04-26T06:18:22.073Z,48.13
2023-04-26T06:20:49.414Z,47.98
2023-04-26T06:25:44.192Z,47.58
2023-04-26T06:28:13.071Z,47.37
2023-04-26T06:30:40.434Z,45.93
2023-04-26T06:33:07.735Z,43.75
2023-04-26T06:35:43.119Z,43.90
2023-04-26T06:38:10.420Z,44.18
2023-04-26T06:40:37.638Z,44.57
2023-04-26T06:43:05.104Z,44.71
2023-04-26T06:45:32.650Z,44.61
2023-04-26T06:47:59.993Z,44.16
2023-04-26T06:50:27.864Z,43.67
2023-04-26T06:52:55.440Z,42.88
2023-04-26T06:55:22.931Z,42.88
2023-04-26T06:57:50.788Z,43.01
2023-04-26T07:00:18.228Z,42.48
2023-04-26T07:02:46.119Z,42.76
2023-04-26T07:05:13.878Z,42.11
2023-04-26T07:07:41.357Z,41.48
2023-04-26T07:10:10.448Z,40.76
2023-04-26T07:12:37.756Z,40.53
2023-04-26T07:15:05.866Z,40.35
2023-04-26T07:17:33.462Z,40.21
2023-04-26T07:20:00.895Z,40.37
2023-04-26T07:22:28.645Z,39.94
2023-04-26T07:24:55.997Z,39.93
2023-04-26T07:27:24.153Z,39.74
2023-04-26T07:29:54.985Z,39.43
2023-04-26T07:32:22.672Z,38.80
2023-04-26T07:34:49.959Z,38.89
2023-04-26T07:37:17.270Z,38.38
2023-04-26T07:39:44.690Z,38.53
2023-04-26T07:42:12.191Z,38.17
2023-04-26T07:44:39.434Z,37.77
2023-04-26T07:47:13.015Z,37.71
2023-04-26T07:49:40.685Z,37.73
2023-04-26T07:52:09.697Z,37.04
2023-04-26T07:54:37.069Z,34.68
2023-04-26T07:57:04.518Z,34.74
2023-04-26T07:59:32.415Z,35.65
2023-04-26T08:01:59.638Z,34.30
2023-04-26T08:04:34.785Z,34.96
2023-04-26T08:07:02.406Z,34.83
2023-04-26T08:09:30.330Z,34.13
2023-04-26T08:11:58.264Z,34.30
2023-04-26T08:14:25.542Z,34.17
2023-04-26T08:16:52.870Z,34.44
2023-04-26T08:19:20.163Z,33.96
2023-04-26T08:21:47.556Z,34.32
2023-04-26T08:24:14.871Z,33.92
2023-04-26T08:26:42.322Z,33.34
2023-04-26T08:29:10.177Z,34.02
2023-04-26T08:31:37.483Z,34.44
2023-04-26T08:34:04.772Z,32.73
2023-04-26T08:36:35.919Z,34.11
2023-04-26T08:39:03.830Z,33.04
2023-04-26T08:41:37.795Z,33.46
2023-04-26T08:44:09.162Z,32.26
2023-04-26T08:47:36.881Z,32.11
2023-04-26T08:50:05.915Z,32.56
2023-04-26T08:52:35.349Z,32.54
2023-04-26T08:55:05.205Z,31.93
2023-04-26T08:57:33.170Z,32.42
2023-04-26T09:00:03.299Z,31.91
2023-04-26T09:02:31.148Z,31.38
2023-04-26T09:04:58.722Z,31.49
2023-04-26T09:07:51.104Z,30.54
2023-04-26T09:10:22.262Z,31.29
2023-04-26T09:12:53.917Z,30.53
2023-04-26T09:15:23.270Z,30.77
2023-04-26T09:17:51.171Z,30.96
2023-04-26T09:20:31.414Z,30.56
2023-04-26T09:23:07.569Z,29.71
2023-04-26T09:25:36.029Z,29.22
2023-04-26T09:28:18.915Z,29.07
2023-04-26T09:30:46.824Z,30.68
2023-04-26T09:33:14.387Z,31.59
2023-04-26T09:35:44.558Z,31.26
2023-04-26T09:38:15.269Z,30.96
2023-04-26T09:40:45.977Z,30.95
2023-04-26T09:43:18.872Z,30.56
2023-04-26T09:45:50.722Z,30.07
2023-04-26T09:48:34.179Z,29.84
2023-04-26T09:51:04.213Z,30.26
2023-04-26T09:53:42.212Z,30.39
2023-04-26T09:56:20.890Z,30.04
2023-04-26T09:58:48.077Z,30.42
2023-04-26T10:01:17.364Z,30.21
2023-04-26T10:03:45.610Z,29.45
2023-04-26T10:06:13.824Z,29.12
2023-04-26T10:08:41.575Z,27.81
2023-04-26T10:11:09.610Z,27.48
2023-04-26T10:13:37.886Z,28.55
2023-04-26T10:16:06.315Z,29.23
2023-04-26T10:18:34.238Z,28.47
2023-04-26T10:21:19.794Z,28.43
2023-04-26T10:23:49.710Z,28.63
2023-04-26T10:26:55.625Z,25.77
2023-04-26T10:29:25.525Z,27.58
2023-04-26T10:32:02.378Z,26.27
2023-04-26T10:34:31.943Z,24.73
2023-04-26T10:37:18.097Z,26.89
2023-04-26T10:39:47.430Z,26.13
2023-04-26T10:42:29.353Z,26.28
2023-04-26T10:44:58.867Z,27.92
2023-04-26T10:47:34.937Z,26.57
2023-04-26T10:50:06.313Z,26.25
2023-04-26T10:52:34.919Z,26.34
2023-04-26T10:55:02.535Z,26.22
2023-04-26T10:57:52.973Z,25.63
2023-04-26T11:00:28.565Z,26.20
2023-04-26T11:03:03.689Z,26.11
2023-04-26T11:05:51.802Z,25.24
2023-04-26T11:08:31.371Z,25.96
2023-04-26T11:11:12.249Z,25.43
2023-04-26T11:13:42.437Z,24.65
2023-04-26T11:16:12.475Z,24.27
2023-04-26T11:18:47.790Z,23.39
2023-04-26T11:21:15.132Z,23.78
2023-04-26T11:23:42.436Z,24.03
2023-04-26T11:26:09.881Z,22.88
2023-04-26T11:28:42.227Z,24.52
2023-04-26T11:31:09.956Z,22.45
2023-04-26T11:33:37.678Z,23.16
2023-04-26T11:36:05.639Z,21.19
2023-04-26T11:38:33.183Z,20.69
2023-04-26T11:41:04.553Z,22.10
2023-04-26T11:43:39.785Z,22.24
2023-04-26T11:46:09.192Z,21.51
2023-04-26T11:48:38.550Z,22.43
2023-04-26T11:51:08.252Z,20.94
2023-04-26T11:53:44.828Z,21.31
2023-04-26T11:56:17.234Z,21.53
2023-04-26T11:58:48.505Z,22.08
2023-04-26T12:01:28.133Z,19.94
2023-04-26T12:03:57.922Z,20.43
2023-04-26T12:06:41.777Z,20.57
2023-04-26T12:09:09.851Z,20.36
2023-04-26T12:11:38.038Z,20.77
2023-04-26T12:14:05.949Z,20.71
2023-04-26T12:16:36.548Z,21.57
2023-04-26T12:19:08.109Z,21.50
2023-04-26T12:21:43.464Z,21.54
2023-04-26T12:24:24.383Z,21.23
2023-04-26T12:26:51.836Z,22.17
2023-04-26T12:29:19.523Z,19.88
2023-04-26T12:31:47.493Z,19.69
2023-04-26T12:34:14.857Z,19.07
2023-04-26T12:36:42.613Z,18.07
2023-04-26T12:39:11.757Z,18.47
2023-04-26T12:41:39.618Z,19.80
2023-04-26T12:44:08.459Z,18.82
2023-04-26T12:46:36.686Z,19.91
2023-04-26T12:49:04.997Z,20.09
2023-04-26T12:51:32.589Z,19.67
2023-04-26T12:53:59.891Z,19.06
2023-04-26T12:56:27.324Z,19.63
2023-04-26T12:58:54.881Z,18.79
2023-04-26T13:01:22.235Z,19.80
2023-04-26T13:03:49.826Z,19.21
2023-04-26T13:06:17.558Z,19.46
2023-04-26T13:08:44.901Z,19.46
2023-04-26T13:11:12.324Z,18.86
2023-04-26T13:13:43.641Z,18.94
2023-04-26T13:16:12.930Z,19.20
2023-04-26T13:18:41.322Z,17.78
2023-04-26T13:21:08.666Z,18.24
2023-04-26T13:23:36.175Z,18.22
2023-04-26T13:26:03.515Z,19.18
2023-04-26T13:28:30.799Z,19.58
2023-04-26T13:30:58.367Z,19.22
2023-04-26T13:33:25.929Z,19.84
2023-04-26T13:35:53.295Z,19.00
2023-04-26T13:38:20.567Z,18.48
2023-04-26T13:40:47.965Z,17.82
2023-04-26T13:43:15.222Z,17.93
2023-04-26T13:45:43.306Z,17.77
2023-04-26T13:48:10.625Z,17.68
2023-04-26T13:50:38.037Z,18.27
2023-04-26T13:53:05.511Z,17.52
2023-04-26T13:55:32.880Z,17.17
2023-04-26T13:58:00.147Z,17.49
2023-04-26T14:00:27.475Z,17.26
2023-04-26T14:02:55.046Z,16.78
2023-04-26T14:05:22.868Z,16.85
2023-04-26T14:07:50.232Z,16.65
2023-04-26T14:10:17.808Z,16.48
2023-04-26T14:12:45.114Z,16.67
2023-04-26T14:15:12.989Z,17.35
2023-04-26T14:17:40.336Z,17.80
2023-04-26T14:20:12.047Z,16.99
2023-04-26T14:22:39.373Z,18.44
2023-04-26T14:25:07.041Z,17.63
2023-04-26T14:27:35.621Z,18.32
2023-04-26T14:30:03.275Z,18.49
2023-04-26T14:32:30.510Z,18.57
2023-04-26T14:34:58.220Z,18.32
2023-04-26T14:37:25.527Z,18.05
2023-04-26T14:39:53.010Z,17.65
2023-04-26T14:42:20.349Z,18.52
2023-04-26T14:44:47.701Z,18.44
2023-04-26T14:47:15.024Z,18.07
2023-04-26T14:49:42.307Z,18.59
2023-04-26T14:52:09.626Z,19.28
2023-04-26T14:54:40.674Z,19.11
2023-04-26T14:57:08.486Z,18.48
2023-04-26T14:59:37.117Z,19.00
2023-04-26T15:02:04.549Z,18.21
2023-04-26T15:04:32.320Z,17.40
2023-04-26T15:06:59.943Z,16.73
2023-04-26T15:09:29.008Z,16.67
2023-04-26T15:11:57.661Z,17.08
2023-04-26T15:14:25.130Z,16.84
2023-04-26T15:16:52.511Z,16.96
2023-04-26T15:19:19.820Z,17.88
2023-04-26T15:21:49.256Z,17.84
2023-04-26T15:24:16.786Z,17.67
2023-04-26T15:26:44.101Z,18.36
2023-04-26T15:29:11.563Z,18.08
2023-04-26T15:31:38.995Z,18.35
2023-04-26T15:34:06.468Z,17.58
2023-04-26T15:36:33.738Z,17.16
2023-04-26T15:39:01.103Z,17.28
2023-04-26T15:41:28.555Z,17.54
2023-04-26T15:43:56.129Z,17.11
2023-04-26T15:46:23.541Z,16.87
2023-04-26T15:48:50.980Z,17.25
2023-04-26T15:51:20.401Z,16.57
2023-04-26T15:53:47.840Z,16.58
2023-04-26T15:56:16.864Z,16.14
2023-04-26T15:58:48.060Z,17.03
2023-04-26T16:01:17.180Z,17.44
2023-04-26T16:03:47.628Z,17.06
2023-04-26T16:06:15.446Z,17.46
2023-04-26T16:08:42.851Z,17.52
2023-04-26T16:11:10.240Z,17.63
2023-04-26T16:13:37.597Z,17.94
2023-04-26T16:16:08.512Z,18.33
2023-04-26T16:18:35.942Z,17.64
2023-04-26T16:21:07.444Z,17.88
2023-04-26T16:23:34.804Z,18.13
2023-04-26T16:26:03.138Z,19.13
2023-04-26T16:28:30.713Z,19.92
2023-04-26T16:30:58.390Z,19.79
2023-04-26T16:33:26.148Z,19.99
2023-04-26T16:35:55.012Z,21.50
2023-04-26T16:38:23.077Z,20.49
2023-04-26T16:40:59.856Z,20.43
2023-04-26T16:43:31.989Z,21.08
2023-04-26T16:46:07.381Z,21.78
2023-04-26T16:48:37.978Z,24.11
2023-04-26T16:51:08.152Z,24.03
2023-04-26T16:53:41.279Z,26.87
2023-04-26T16:56:08.857Z,28.09
2023-04-26T16:58:36.292Z,27.30
2023-04-26T17:01:03.767Z,28.30
2023-04-26T17:03:31.306Z,27.36
2023-04-26T17:06:01.885Z,27.88
2023-04-26T17:08:30.520Z,29.30
2023-04-26T17:10:57.920Z,29.02
2023-04-26T17:13:25.150Z,29.71
2023-04-26T17:15:54.626Z,29.40
2023-04-26T17:18:21.922Z,29.68
2023-04-26T17:20:49.841Z,29.82
2023-04-26T17:23:17.313Z,30.34
2023-04-26T17:25:45.041Z,30.58
2023-04-26T17:28:12.403Z,30.83
2023-04-26T17:30:43.151Z,31.48
2023-04-26T17:33:10.684Z,31.63
2023-04-26T17:35:38.376Z,32.19
2023-04-26T17:38:06.928Z,32.51
2023-04-26T17:40:34.382Z,33.24
2023-04-26T17:43:02.122Z,33.51
2023-04-26T17:45:30.592Z,33.87
2023-04-26T17:47:58.262Z,33.94
2023-04-26T17:50:25.508Z,34.33
2023-04-26T17:52:52.915Z,34.63
2023-04-26T17:55:20.305Z,34.71
2023-04-26T17:57:47.768Z,34.59
2023-04-26T18:00:15.611Z,35.72
2023-04-26T18:02:48.899Z,36.01
2023-04-26T18:05:20.790Z,36.33
2023-04-26T18:07:50.817Z,36.58
2023-04-26T18:10:18.212Z,36.52
2023-04-26T18:12:45.633Z,36.72
2023-04-26T18:15:14.260Z,37.02
2023-04-26T18:17:42.151Z,37.13
2023-04-26T18:20:10.162Z,37.80
2023-04-26T18:22:37.411Z,37.65
2023-04-26T18:25:08.636Z,38.14
2023-04-26T18:27:35.907Z,38.92
2023-04-26T18:30:04.701Z,38.65
2023-04-26T18:32:32.368Z,38.88
2023-04-26T18:35:00.955Z,39.54
2023-04-26T18:37:28.570Z,39.29
2023-04-26T18:39:55.882Z,39.70
2023-04-26T18:42:23.128Z,39.89
2023-04-26T18:44:50.586Z,39.84
2023-04-26T18:47:17.919Z,40.14
2023-04-26T18:49:45.165Z,40.52
2023-04-26T18:52:12.525Z,40.56
2023-04-26T18:54:39.794Z,40.61
2023-04-26T18:57:07.070Z,40.74
2023-04-26T18:59:34.333Z,40.75
2023-04-26T19:02:01.775Z,40.91
2023-04-26T19:04:29.296Z,41.47
2023-04-26T19:06:56.939Z,40.94
2023-04-26T19:09:24.354Z,41.48
2023-04-26T19:11:51.624Z,41.37
2023-04-26T19:14:19.064Z,41.26
2023-04-26T19:16:46.570Z,41.60
2023-04-26T19:19:13.851Z,41.78
2023-04-26T19:21:41.104Z,41.92
2023-04-26T19:24:08.661Z,41.70
2023-04-26T19:26:37.845Z,42.03
2023-04-26T19:29:07.004Z,42.03
2023-04-26T19:31:34.876Z,42.25
2023-04-26T19:34:02.703Z,42.38
2023-04-26T19:36:30.220Z,42.31
2023-04-26T19:38:58.273Z,42.12
2023-04-26T19:41:28.264Z,42.27
2023-04-26T19:43:56.092Z,42.41
2023-04-26T19:46:23.887Z,42.55
2023-04-26T19:48:51.598Z,42.83
2023-04-26T19:51:19.227Z,42.63
2023-04-26T19:53:46.828Z,42.80
2023-04-26T19:56:14.549Z,42.79
2023-04-26T19:58:42.250Z,42.54
2023-04-26T20:01:10.249Z,43.00
2023-04-26T20:03:37.867Z,43.03
2023-04-26T20:06:05.754Z,42.88
2023-04-26T20:08:34.621Z,42.74
2023-04-26T20:11:04.822Z,43.10
2023-04-26T20:13:32.769Z,43.38
2023-04-26T20:16:00.184Z,43.69
2023-04-26T20:18:27.603Z,43.76
2023-04-26T20:20:54.960Z,43.80
2023-04-26T20:23:22.249Z,43.84
2023-04-26T20:25:51.308Z,43.59
2023-04-26T20:28:18.963Z,43.64
2023-04-26T20:30:46.565Z,43.60
2023-04-26T20:33:14.023Z,43.68
2023-04-26T20:35:41.576Z,43.83
2023-04-26T20:38:09.252Z,43.66
2023-04-26T20:40:36.806Z,43.59
2023-04-26T20:43:04.569Z,43.94
2023-04-26T20:45:32.399Z,44.09
2023-04-26T20:48:00.133Z,44.00
2023-04-26T20:50:27.982Z,43.97
2023-04-26T20:52:55.719Z,43.98
2023-04-26T20:55:23.383Z,44.07
2023-04-26T20:57:51.070Z,44.11
2023-04-26T21:00:19.030Z,43.87
2023-04-26T21:02:46.765Z,43.89
2023-04-26T21:05:14.481Z,43.93
2023-04-26T21:07:42.171Z,44.16
2023-04-26T21:10:10.102Z,44.28
2023-04-26T21:12:37.513Z,44.52
2023-04-26T21:15:05.593Z,44.56
2023-04-26T21:17:32.917Z,44.86
2023-04-26T21:20:00.299Z,44.97
2023-04-26T21:22:27.723Z,44.95
2023-04-26T21:24:55.002Z,45.08
2023-04-26T21:27:22.411Z,44.99
2023-04-26T21:29:49.928Z,44.99
2023-04-26T21:32:17.515Z,45.11
2023-04-26T21:34:44.927Z,44.76
2023-04-26T21:37:12.592Z,44.61
2023-04-26T21:39:40.332Z,44.42
2023-04-26T21:42:07.985Z,44.26
2023-04-26T21:44:35.714Z,44.29
2023-04-26T21:47:03.467Z,44.67
2023-04-26T21:49:31.106Z,45.29
2023-04-26T21:51:58.692Z,45.91
2023-04-26T21:54:26.493Z,46.08
2023-04-26T21:56:54.119Z,46.45
2023-04-26T21:59:21.981Z,46.40
2023-04-26T22:01:49.711Z,46.65
2023-04-26T22:04:18.256Z,46.69
2023-04-26T22:06:46.097Z,46.55
2023-04-26T22:09:13.856Z,46.26
2023-04-26T22:11:41.655Z,46.39
2023-04-26T22:14:09.307Z,46.31
2023-04-26T22:16:36.994Z,46.44
2023-04-26T22:19:13.874Z,46.38
2023-04-26T22:21:41.947Z,46.27
2023-04-26T22:24:09.765Z,46.35
2023-04-26T22:26:37.395Z,46.65
2023-04-26T22:29:04.998Z,46.64
2023-04-26T22:31:32.604Z,46.62
2023-04-26T22:34:00.199Z,46.83
2023-04-26T22:36:27.894Z,46.99
2023-04-26T22:38:55.417Z,47.15
2023-04-26T22:41:23.042Z,47.17
2023-04-26T22:43:52.748Z,47.05
2023-04-26T22:46:20.936Z,47.28
2023-04-26T22:48:48.665Z,47.26
2023-04-26T22:51:16.361Z,47.44
2023-04-26T22:53:43.966Z,47.71
2023-04-26T22:56:11.785Z,47.53
2023-04-26T22:58:42.844Z,47.61
2023-04-26T23:01:10.788Z,47.61
2023-04-26T23:03:38.633Z,47.54
2023-04-26T23:06:06.745Z,47.96
2023-04-26T23:08:34.561Z,48.04
2023-04-26T23:11:06.398Z,48.05
2023-04-26T23:13:34.416Z,48.13
2023-04-26T23:16:02.717Z,48.49
2023-04-26T23:18:30.679Z,48.56
2023-04-26T23:20:58.307Z,48.37
2023-04-26T23:23:26.863Z,48.58
2023-04-26T23:25:54.421Z,48.84
2023-04-26T23:28:21.969Z,48.70
2023-04-26T23:30:49.830Z,48.71
2023-04-26T23:33:17.440Z,49.12
2023-04-26T23:35:45.039Z,48.62
2023-04-26T23:38:12.992Z,48.81
2023-04-26T23:40:40.648Z,49.22
2023-04-26T23:43:08.638Z,48.92
2023-04-26T23:45:36.658Z,49.06
2023-04-26T23:48:04.551Z,49.23
2023-04-26T23:50:32.267Z,49.02
2023-04-26T23:53:00.065Z,48.96
2023-04-26T23:55:27.788Z,48.91
2023-04-26T23:57:55.352Z,48.79
